createdAt,value
2018-09-21T00:01:33.810Z,5.47
2018-09-21T00:06:36.924Z,5.20
2018-09-21T00:11:40.061Z,3.73
2018-09-21T00:16:43.156Z,4.30
2018-09-21T00:21:46.269Z,5.70
2018-09-21T00:26:49.377Z,4.67
2018-09-21T00:31:52.485Z,5.83
2018-09-21T00:36:55.624Z,7.23
2018-09-21T00:41:58.728Z,5.87
2018-09-21T00:47:01.844Z,10.00
2018-09-21T00:52:05.505Z,9.00
2018-09-21T00:57:08.600Z,5.10
2018-09-21T01:02:11.836Z,5.93
2018-09-21T01:07:15.425Z,5.77
2018-09-21T01:12:18.528Z,3.43
2018-09-21T01:17:21.632Z,9.53
2018-09-21T01:22:24.812Z,4.03
2018-09-21T01:27:27.916Z,3.93
2018-09-21T01:32:31.025Z,7.83
2018-09-21T01:37:34.137Z,5.10
2018-09-21T01:42:37.303Z,4.80
2018-09-21T01:47:40.407Z,3.67
2018-09-21T01:52:43.510Z,5.27
2018-09-21T01:57:46.623Z,4.93
2018-09-21T02:02:49.736Z,4.07
2018-09-21T02:07:52.835Z,5.60
2018-09-21T02:12:55.932Z,6.97
2018-09-21T02:17:59.044Z,6.27
2018-09-21T02:23:02.162Z,6.50
2018-09-21T02:28:05.721Z,6.53
2018-09-21T02:33:08.836Z,3.97
2018-09-21T02:38:11.940Z,6.28
2018-09-21T02:43:15.056Z,4.83
2018-09-21T02:48:18.175Z,7.40
2018-09-21T02:53:21.268Z,5.33
2018-09-21T02:58:24.383Z,5.47
2018-09-21T03:03:27.486Z,7.47
2018-09-21T03:08:30.610Z,7.00
2018-09-21T03:13:33.719Z,7.55
2018-09-21T03:18:36.968Z,6.23
2018-09-21T03:23:40.078Z,7.10
2018-09-21T03:28:43.189Z,9.10
2018-09-21T03:33:46.324Z,10.10
2018-09-21T03:38:49.431Z,7.30
2018-09-21T03:43:52.536Z,10.07
2018-09-21T03:48:55.648Z,12.90
2018-09-21T03:53:58.848Z,6.17
2018-09-21T03:59:01.966Z,10.57
2018-09-21T04:04:05.637Z,9.87
2018-09-21T04:09:09.820Z,10.30
2018-09-21T04:14:12.944Z,10.67
2018-09-21T04:19:16.069Z,5.03
2018-09-21T04:24:19.198Z,5.53
2018-09-21T04:29:22.313Z,5.05
2018-09-21T04:34:25.442Z,6.23
2018-09-21T04:39:28.545Z,6.67
2018-09-21T04:44:31.652Z,7.60
2018-09-21T04:49:34.792Z,8.47
2018-09-21T04:54:37.909Z,6.93
2018-09-21T04:59:41.024Z,7.73
2018-09-21T05:04:44.369Z,8.50
2018-09-21T05:09:47.467Z,12.60
2018-09-21T05:14:50.585Z,13.40
2018-09-21T05:19:53.866Z,10.87
2018-09-21T05:24:56.969Z,9.23
2018-09-21T05:30:00.093Z,5.33
2018-09-21T05:35:03.383Z,8.37
2018-09-21T05:40:06.432Z,16.63
2018-09-21T05:45:09.553Z,12.60
2018-09-21T05:50:12.681Z,10.68
2018-09-21T05:55:15.789Z,8.78
2018-09-21T06:00:18.912Z,7.92
2018-09-21T06:05:22.036Z,6.37
2018-09-21T06:10:25.165Z,6.20
2018-09-21T06:15:28.289Z,3.63
2018-09-21T06:20:31.421Z,8.60
2018-09-21T06:25:34.542Z,6.60
2018-09-21T06:30:37.742Z,6.80
2018-09-21T06:35:40.858Z,6.62
2018-09-21T06:40:43.993Z,8.80
2018-09-21T06:45:47.109Z,5.73
2018-09-21T06:50:50.240Z,12.00
2018-09-21T06:55:53.352Z,8.60
2018-09-21T07:00:56.464Z,8.53
2018-09-21T07:05:59.586Z,9.03
2018-09-21T07:11:02.697Z,10.40
2018-09-21T07:16:06.786Z,8.93
2018-09-21T07:21:09.888Z,8.48
2018-09-21T07:26:13.100Z,6.72
2018-09-21T07:31:16.279Z,9.00
2018-09-21T07:36:19.340Z,8.78
2018-09-21T07:41:22.444Z,8.30
2018-09-21T07:46:25.564Z,5.97
2018-09-21T07:51:28.656Z,7.80
2018-09-21T07:56:31.796Z,7.30
2018-09-21T08:01:34.904Z,9.97
2018-09-21T08:06:38.016Z,9.20
2018-09-21T08:11:41.136Z,7.70
2018-09-21T08:16:44.253Z,8.47
2018-09-21T08:21:47.400Z,8.20
2018-09-21T08:26:50.508Z,5.63
2018-09-21T08:31:53.656Z,6.00
2018-09-21T08:36:56.755Z,9.10
2018-09-21T08:41:59.871Z,6.00
2018-09-21T08:47:02.987Z,7.50
2018-09-21T08:52:06.116Z,13.43
2018-09-21T08:57:09.237Z,6.70
2018-09-21T09:02:12.344Z,6.63
2018-09-21T09:07:15.457Z,7.22
2018-09-21T09:12:18.564Z,5.95
2018-09-21T09:17:21.707Z,5.07
2018-09-21T09:22:24.899Z,5.47
2018-09-21T09:27:28.013Z,6.10
2018-09-21T09:32:31.122Z,6.40
2018-09-21T09:37:34.227Z,6.70
2018-09-21T09:42:37.469Z,7.00
2018-09-21T09:47:40.457Z,7.30
2018-09-21T09:52:43.572Z,11.60
2018-09-21T09:57:46.680Z,6.10
2018-09-21T10:02:49.796Z,12.37
2018-09-21T10:07:52.900Z,3.90
2018-09-21T10:12:56.032Z,3.00
2018-09-21T10:17:59.148Z,3.93
2018-09-21T10:23:03.161Z,3.60
2018-09-21T10:28:06.532Z,4.70
2018-09-21T10:33:09.583Z,3.30
2018-09-21T10:38:12.679Z,6.77
2018-09-21T10:43:15.878Z,3.67
2018-09-21T10:48:18.915Z,4.12
2018-09-21T10:53:22.160Z,4.40
2018-09-21T10:58:25.276Z,3.30
2018-09-21T11:03:28.412Z,3.70
2018-09-21T11:08:31.525Z,3.63
2018-09-21T11:13:34.640Z,5.47
2018-09-21T11:18:37.749Z,3.77
2018-09-21T11:23:40.864Z,4.00
2018-09-21T11:28:43.980Z,4.17
2018-09-21T11:33:47.092Z,4.17
2018-09-21T11:38:50.205Z,3.97
2018-09-21T11:43:53.317Z,7.17
2018-09-21T11:48:56.417Z,3.67
2018-09-21T11:53:59.610Z,3.27
2018-09-21T11:59:02.708Z,4.10
2018-09-21T12:04:05.885Z,2.17
2018-09-21T12:09:09.000Z,3.50
2018-09-21T12:14:12.135Z,3.83
2018-09-21T12:19:15.261Z,2.50
2018-09-21T12:24:18.371Z,2.60
2018-09-21T12:29:21.477Z,2.02
2018-09-21T12:34:24.605Z,2.30
2018-09-21T12:39:27.721Z,2.73
2018-09-21T12:44:30.878Z,2.17
2018-09-21T12:49:34.968Z,3.00
2018-09-21T12:54:38.360Z,2.17
2018-09-21T12:59:41.476Z,2.70
2018-09-21T13:04:44.597Z,2.10
2018-09-21T13:09:47.704Z,2.47
2018-09-21T13:14:50.808Z,2.90
2018-09-21T13:19:53.941Z,2.83
2018-09-21T13:24:57.046Z,2.63
2018-09-21T13:30:00.151Z,2.77
2018-09-21T13:35:03.307Z,1.83
2018-09-21T13:40:06.413Z,2.37
2018-09-21T13:45:09.520Z,2.17
2018-09-21T13:50:12.633Z,1.90
2018-09-21T13:55:15.752Z,2.67
2018-09-21T14:00:18.882Z,2.00
2018-09-21T14:05:22.204Z,2.37
2018-09-21T14:10:25.372Z,2.23
2018-09-21T14:15:28.484Z,2.30
2018-09-21T14:20:31.596Z,1.90
2018-09-21T14:25:34.696Z,1.80
2018-09-21T14:30:37.808Z,2.17
2018-09-21T14:35:40.936Z,1.63
2018-09-21T14:40:44.007Z,2.83
2018-09-21T14:45:47.122Z,2.00
2018-09-21T14:50:50.238Z,1.40
2018-09-21T14:55:53.377Z,2.10
2018-09-21T15:00:56.492Z,1.80
2018-09-21T15:05:59.650Z,3.87
2018-09-21T15:11:02.760Z,1.60
2018-09-21T15:16:05.885Z,3.03
2018-09-21T15:21:09.026Z,1.80
2018-09-21T15:26:12.150Z,3.62
2018-09-21T15:31:15.257Z,1.60
2018-09-21T15:36:19.273Z,1.70
2018-09-21T15:41:22.395Z,2.47
2018-09-21T15:46:25.496Z,2.03
2018-09-21T15:51:28.600Z,2.20
2018-09-21T15:56:31.733Z,3.83
2018-09-21T16:01:34.836Z,2.13
2018-09-21T16:06:37.937Z,1.90
2018-09-21T16:11:41.040Z,2.90
2018-09-21T16:16:44.152Z,1.23
2018-09-21T16:21:47.284Z,0.83
2018-09-21T16:26:50.453Z,1.07
2018-09-21T16:31:53.527Z,1.07
2018-09-21T16:36:56.648Z,0.87
2018-09-21T16:41:59.973Z,1.60
2018-09-21T16:47:03.060Z,1.30
2018-09-21T16:52:06.171Z,2.83
2018-09-21T16:57:09.270Z,1.90
2018-09-21T17:02:12.405Z,1.65
2018-09-21T17:07:16.756Z,1.30
2018-09-21T17:12:20.000Z,1.80
2018-09-21T17:17:23.125Z,1.62
2018-09-21T17:22:26.241Z,1.87
2018-09-21T17:27:29.379Z,1.47
2018-09-21T17:32:32.559Z,1.70
2018-09-21T17:37:35.678Z,2.20
2018-09-21T17:42:38.801Z,2.10
2018-09-21T17:47:42.062Z,2.40
2018-09-21T17:52:45.174Z,2.40
2018-09-21T17:57:48.257Z,1.70
2018-09-21T18:02:51.357Z,2.23
2018-09-21T18:07:54.465Z,1.67
2018-09-21T18:12:57.576Z,1.57
2018-09-21T18:18:00.686Z,1.67
2018-09-21T18:23:03.898Z,1.37
2018-09-21T18:28:07.032Z,1.67
2018-09-21T18:33:10.148Z,1.35
2018-09-21T18:38:13.284Z,0.80
2018-09-21T18:43:16.409Z,0.50
2018-09-21T18:48:19.510Z,0.50
2018-09-21T18:53:22.649Z,0.50
2018-09-21T18:58:25.772Z,0.50
2018-09-21T19:03:28.899Z,0.60
2018-09-21T19:08:32.018Z,1.70
2018-09-21T19:13:35.120Z,0.50
2018-09-21T19:18:38.267Z,0.60
2018-09-21T19:23:41.385Z,0.80
2018-09-21T19:28:44.496Z,0.60
2018-09-21T19:33:47.616Z,0.50
2018-09-21T19:38:50.727Z,0.70
2018-09-21T19:43:53.867Z,0.50
2018-09-21T19:48:56.974Z,0.83
2018-09-21T19:54:00.084Z,0.53
2018-09-21T19:59:03.205Z,1.53
2018-09-21T20:04:06.433Z,0.97
2018-09-21T20:09:11.391Z,0.60
2018-09-21T20:14:14.497Z,1.17
2018-09-21T20:19:17.605Z,0.70
2018-09-21T20:24:20.901Z,0.50
2018-09-21T20:29:24.062Z,2.00
2018-09-21T20:34:27.580Z,0.60
2018-09-21T20:39:31.069Z,0.50
2018-09-21T20:44:34.317Z,0.80
2018-09-21T20:49:37.401Z,0.80
2018-09-21T20:54:40.498Z,0.53
2018-09-21T20:59:43.728Z,0.70
2018-09-21T21:04:47.275Z,0.97
2018-09-21T21:09:50.364Z,0.80
2018-09-21T21:14:53.472Z,4.30
2018-09-21T21:19:56.592Z,0.80
2018-09-21T21:24:59.696Z,0.70
2018-09-21T21:30:02.813Z,0.87
2018-09-21T21:35:06.026Z,0.50
2018-09-21T21:40:09.128Z,0.60
2018-09-21T21:45:12.236Z,0.62
2018-09-21T21:50:15.341Z,0.83
2018-09-21T21:55:18.448Z,0.97
2018-09-21T22:00:21.560Z,1.07
2018-09-21T22:05:24.670Z,0.50
2018-09-21T22:10:27.777Z,0.60
2018-09-21T22:15:30.880Z,0.53
2018-09-21T22:20:34.107Z,0.60
2018-09-21T22:25:37.189Z,0.80
2018-09-21T22:30:40.297Z,1.20
2018-09-21T22:35:43.409Z,2.30
2018-09-21T22:40:46.512Z,0.60
2018-09-21T22:45:49.621Z,0.73
2018-09-21T22:50:52.729Z,2.50
2018-09-21T22:55:56.080Z,0.60
2018-09-21T23:00:59.193Z,0.77
2018-09-21T23:06:02.313Z,0.80
2018-09-21T23:11:05.585Z,2.20
2018-09-21T23:16:08.698Z,0.90
2018-09-21T23:21:11.805Z,1.10
2018-09-21T23:26:14.901Z,0.63
2018-09-21T23:31:18.007Z,0.70
2018-09-21T23:36:21.681Z,20.30
2018-09-21T23:41:24.785Z,1.10
2018-09-21T23:46:27.893Z,0.87
2018-09-21T23:51:30.991Z,0.70
2018-09-21T23:56:34.092Z,1.73
